createdAt,value
2022-11-25T00:01:00.105Z,4.85
2022-11-25T00:03:32.253Z,4.88
2022-11-25T00:06:03.805Z,5.35
2022-11-25T00:08:35.630Z,5.15
2022-11-25T00:11:07.155Z,4.03
2022-11-25T00:13:38.974Z,4.63
2022-11-25T00:16:10.514Z,4.38
2022-11-25T00:18:42.430Z,3.65
2022-11-25T00:21:13.916Z,4.53
2022-11-25T00:23:45.747Z,4.25
2022-11-25T00:26:17.262Z,5.13
2022-11-25T00:28:49.085Z,5.07
2022-11-25T00:31:20.746Z,4.38
2022-11-25T00:33:52.610Z,4.25
2022-11-25T00:36:24.111Z,4.90
2022-11-25T00:38:55.984Z,5.35
2022-11-25T00:41:50.877Z,4.43
2022-11-25T00:44:39.158Z,6.05
2022-11-25T00:47:11.231Z,5.30
2022-11-25T00:49:43.307Z,4.57
2022-11-25T00:52:14.851Z,4.78
2022-11-25T00:54:46.773Z,5.13
2022-11-25T00:57:18.290Z,5.13
2022-11-25T00:59:49.835Z,4.18
2022-11-25T01:02:21.390Z,4.97
2022-11-25T01:04:52.990Z,4.82
2022-11-25T01:07:24.536Z,4.93
2022-11-25T01:09:56.454Z,5.18
2022-11-25T01:12:28.004Z,4.95
2022-11-25T01:14:59.764Z,5.95
2022-11-25T01:17:31.271Z,5.15
2022-11-25T01:20:04.054Z,4.78
2022-11-25T01:25:07.395Z,4.07
2022-11-25T01:27:42.948Z,5.60
2022-11-25T01:30:15.157Z,4.13
2022-11-25T01:32:46.664Z,4.32
2022-11-25T01:35:18.645Z,5.68
2022-11-25T01:37:50.141Z,4.57
2022-11-25T01:40:22.104Z,6.32
2022-11-25T01:42:53.590Z,4.90
2022-11-25T01:45:28.795Z,4.93
2022-11-25T01:48:00.443Z,5.80
2022-11-25T01:50:32.271Z,4.93
2022-11-25T01:53:03.763Z,5.53
2022-11-25T01:55:35.581Z,4.72
2022-11-25T01:58:07.091Z,4.47
2022-11-25T02:00:39.091Z,4.13
2022-11-25T02:03:10.589Z,5.10
2022-11-25T02:05:42.632Z,6.03
2022-11-25T02:08:14.150Z,4.60
2022-11-25T02:10:45.663Z,4.00
2022-11-25T02:13:17.493Z,3.95
2022-11-25T02:15:49.002Z,5.43
2022-11-25T02:18:20.843Z,4.15
2022-11-25T02:20:52.444Z,4.28
2022-11-25T02:23:26.108Z,4.45
2022-11-25T02:25:57.663Z,6.55
2022-11-25T02:28:30.179Z,6.03
2022-11-25T02:31:01.670Z,5.65
2022-11-25T02:33:33.537Z,3.58
2022-11-25T02:36:05.033Z,4.97
2022-11-25T02:38:36.806Z,4.65
2022-11-25T02:41:08.274Z,4.55
2022-11-25T02:43:39.930Z,4.50
2022-11-25T02:46:11.479Z,5.72
2022-11-25T02:49:07.983Z,4.95
2022-11-25T02:51:34.797Z,4.70
2022-11-25T02:54:06.640Z,3.80
2022-11-25T02:56:38.163Z,4.72
2022-11-25T02:59:10.022Z,3.85
2022-11-25T03:01:41.695Z,3.47
2022-11-25T03:04:13.492Z,5.05
2022-11-25T03:06:45.047Z,4.40
2022-11-25T03:09:16.947Z,5.20
2022-11-25T03:12:07.293Z,4.07
2022-11-25T03:14:39.231Z,4.70
2022-11-25T03:17:10.709Z,4.40
2022-11-25T03:19:42.560Z,3.85
2022-11-25T03:22:14.173Z,4.28
2022-11-25T03:24:45.880Z,3.67
2022-11-25T03:27:17.567Z,4.68
2022-11-25T03:29:49.750Z,3.80
2022-11-25T03:32:21.494Z,3.97
2022-11-25T03:34:53.316Z,5.03
2022-11-25T03:37:24.951Z,3.20
2022-11-25T03:39:56.835Z,3.50
2022-11-25T03:42:28.346Z,3.38
2022-11-25T03:44:59.834Z,3.55
2022-11-25T03:47:31.289Z,4.80
2022-11-25T03:50:03.297Z,2.95
2022-11-25T03:52:34.775Z,3.43
2022-11-25T03:55:06.633Z,4.80
2022-11-25T03:57:38.113Z,4.22
2022-11-25T04:00:09.620Z,3.83
2022-11-25T04:02:41.219Z,3.38
2022-11-25T04:05:12.848Z,3.42
2022-11-25T04:07:44.370Z,3.65
2022-11-25T04:10:16.140Z,3.00
2022-11-25T04:12:47.702Z,4.22
2022-11-25T04:15:19.560Z,4.25
2022-11-25T04:17:51.065Z,4.40
2022-11-25T04:20:22.896Z,3.58
2022-11-25T04:22:54.372Z,4.07
2022-11-25T04:25:26.296Z,4.05
2022-11-25T04:27:57.774Z,4.10
2022-11-25T04:30:30.945Z,3.80
2022-11-25T04:33:02.938Z,4.38
2022-11-25T04:35:34.726Z,4.17
2022-11-25T04:38:06.219Z,4.82
2022-11-25T04:40:37.728Z,4.43
2022-11-25T04:43:10.782Z,3.70
2022-11-25T04:46:12.634Z,3.65
2022-11-25T04:48:34.303Z,3.70
2022-11-25T04:51:06.210Z,3.63
2022-11-25T04:53:37.712Z,3.97
2022-11-25T04:56:09.733Z,4.68
2022-11-25T04:59:00.101Z,4.13
2022-11-25T05:01:31.717Z,3.90
2022-11-25T05:04:03.519Z,5.38
2022-11-25T05:06:35.011Z,4.65
2022-11-25T05:09:06.837Z,3.85
2022-11-25T05:11:38.410Z,3.47
2022-11-25T05:14:10.283Z,3.78
2022-11-25T05:16:41.805Z,4.18
2022-11-25T05:19:13.845Z,4.25
2022-11-25T05:21:57.388Z,3.30
2022-11-25T05:24:29.298Z,4.93
2022-11-25T05:27:00.899Z,3.53
2022-11-25T05:29:32.623Z,3.90
2022-11-25T05:32:04.099Z,4.70
2022-11-25T05:34:36.725Z,5.00
2022-11-25T05:39:40.254Z,4.20
2022-11-25T05:42:11.731Z,3.55
2022-11-25T05:44:43.667Z,3.33
2022-11-25T05:47:15.125Z,4.70
2022-11-25T05:49:46.899Z,4.90
2022-11-25T05:52:18.381Z,5.03
2022-11-25T05:54:53.209Z,4.00
2022-11-25T05:57:28.646Z,4.93
2022-11-25T06:02:32.077Z,4.32
2022-11-25T06:05:04.139Z,4.30
2022-11-25T06:07:35.694Z,3.90
2022-11-25T06:10:07.591Z,4.72
2022-11-25T06:12:39.050Z,3.17
2022-11-25T06:15:10.839Z,3.92
2022-11-25T06:17:42.326Z,3.58
2022-11-25T06:20:14.235Z,4.05
2022-11-25T06:22:45.725Z,3.20
2022-11-25T06:25:17.519Z,3.95
2022-11-25T06:28:11.777Z,3.70
2022-11-25T06:30:40.804Z,3.47
2022-11-25T06:35:45.123Z,3.55
2022-11-25T06:38:16.598Z,2.95
2022-11-25T06:40:48.381Z,3.95
2022-11-25T06:43:19.857Z,2.97
2022-11-25T06:45:51.687Z,3.47
2022-11-25T06:48:23.271Z,4.23
2022-11-25T06:50:55.211Z,3.85
2022-11-25T06:53:26.677Z,3.27
2022-11-25T06:55:58.479Z,3.65
2022-11-25T06:58:35.934Z,3.38
2022-11-25T07:01:08.403Z,3.90
2022-11-25T07:03:39.969Z,2.70
2022-11-25T07:06:11.733Z,4.00
2022-11-25T07:08:43.199Z,4.03
2022-11-25T07:11:15.046Z,4.20
2022-11-25T07:13:46.597Z,2.67
2022-11-25T07:16:18.559Z,2.70
2022-11-25T07:18:50.132Z,3.03
2022-11-25T07:21:22.045Z,2.58
2022-11-25T07:23:53.534Z,2.93
2022-11-25T07:26:25.554Z,3.70
2022-11-25T07:28:57.041Z,3.72
2022-11-25T07:31:32.519Z,2.95
2022-11-25T07:34:04.883Z,3.15
2022-11-25T07:36:36.684Z,4.28
2022-11-25T07:39:08.169Z,4.18
2022-11-25T07:41:40.902Z,3.60
2022-11-25T07:44:12.710Z,3.15
2022-11-25T07:46:44.352Z,4.43
2022-11-25T07:49:16.211Z,3.25
2022-11-25T07:51:47.682Z,3.03
2022-11-25T07:54:19.437Z,2.78
2022-11-25T07:56:50.993Z,4.15
2022-11-25T07:59:22.901Z,3.70
2022-11-25T08:01:54.513Z,5.20
2022-11-25T08:04:26.353Z,4.53
2022-11-25T08:06:57.816Z,3.38
2022-11-25T08:09:29.617Z,4.80
2022-11-25T08:12:01.088Z,4.65
2022-11-25T08:14:32.974Z,4.30
2022-11-25T08:17:06.033Z,3.63
2022-11-25T08:19:38.061Z,4.60
2022-11-25T08:22:09.815Z,3.33
2022-11-25T08:24:41.502Z,3.33
2022-11-25T08:27:13.008Z,4.30
2022-11-25T08:29:44.795Z,3.38
2022-11-25T08:32:16.257Z,2.80
2022-11-25T08:34:48.107Z,3.15
2022-11-25T08:37:19.606Z,3.97
2022-11-25T08:39:53.311Z,3.05
2022-11-25T08:42:25.271Z,3.22
2022-11-25T08:44:57.402Z,3.80
2022-11-25T08:47:28.968Z,2.58
2022-11-25T08:50:00.867Z,3.00
2022-11-25T08:52:32.365Z,3.75
2022-11-25T08:55:04.311Z,3.88
2022-11-25T08:57:35.837Z,3.13
2022-11-25T09:00:07.631Z,4.07
2022-11-25T09:02:39.174Z,3.90
2022-11-25T09:05:10.738Z,3.53
2022-11-25T09:07:42.305Z,3.80
2022-11-25T09:10:14.107Z,3.25
2022-11-25T09:12:45.612Z,3.10
2022-11-25T09:15:17.420Z,3.97
2022-11-25T09:17:48.940Z,4.43
2022-11-25T09:20:20.843Z,3.67
2022-11-25T09:22:52.434Z,4.27
2022-11-25T09:25:24.323Z,3.65
2022-11-25T09:27:55.827Z,4.25
2022-11-25T09:30:27.350Z,4.20
2022-11-25T09:32:58.861Z,3.63
2022-11-25T09:35:30.922Z,4.45
2022-11-25T09:38:02.463Z,4.97
2022-11-25T09:40:33.974Z,4.38
2022-11-25T09:43:24.119Z,4.25
2022-11-25T09:46:14.813Z,3.58
2022-11-25T09:48:46.330Z,4.65
2022-11-25T09:51:18.239Z,4.00
2022-11-25T09:53:49.740Z,5.05
2022-11-25T09:56:21.634Z,3.83
2022-11-25T09:58:53.165Z,5.05
2022-11-25T10:01:25.033Z,4.30
2022-11-25T10:03:56.536Z,2.97
2022-11-25T10:06:28.398Z,4.47
2022-11-25T10:08:59.968Z,4.20
2022-11-25T10:11:31.823Z,3.88
2022-11-25T10:14:03.378Z,3.00
2022-11-25T10:16:36.001Z,3.72
2022-11-25T10:19:08.329Z,3.05
2022-11-25T10:21:40.202Z,4.25
2022-11-25T10:24:11.708Z,4.18
2022-11-25T10:26:43.773Z,3.75
2022-11-25T10:29:17.055Z,3.93
2022-11-25T10:31:48.885Z,3.92
2022-11-25T10:34:20.467Z,4.45
2022-11-25T10:36:52.366Z,3.92
2022-11-25T10:39:24.530Z,4.13
2022-11-25T10:41:56.221Z,3.72
2022-11-25T10:44:27.809Z,3.78
2022-11-25T10:47:13.613Z,3.88
2022-11-25T10:49:46.489Z,3.75
2022-11-25T10:52:18.016Z,4.23
2022-11-25T10:54:49.805Z,3.63
2022-11-25T10:57:21.357Z,3.25
2022-11-25T10:59:53.359Z,3.40
2022-11-25T11:02:24.964Z,4.10
2022-11-25T11:04:56.843Z,2.80
2022-11-25T11:07:28.443Z,3.30
2022-11-25T11:09:59.989Z,3.25
2022-11-25T11:12:31.514Z,3.53
2022-11-25T11:15:03.502Z,3.38
2022-11-25T11:17:37.058Z,3.30
2022-11-25T11:20:08.768Z,3.40
2022-11-25T11:22:40.278Z,2.65
2022-11-25T11:25:11.865Z,3.10
2022-11-25T11:27:43.376Z,3.30
2022-11-25T11:30:15.400Z,3.58
2022-11-25T11:32:47.866Z,2.97
2022-11-25T11:35:19.694Z,3.67
2022-11-25T11:37:52.565Z,3.55
2022-11-25T11:42:57.226Z,3.28
2022-11-25T11:45:29.282Z,3.20
2022-11-25T11:48:00.798Z,3.17
2022-11-25T11:50:32.619Z,3.28
2022-11-25T11:53:04.126Z,3.05
2022-11-25T11:55:36.132Z,3.13
2022-11-25T11:58:07.629Z,2.80
2022-11-25T12:00:39.457Z,3.15
2022-11-25T12:03:11.077Z,2.80
2022-11-25T12:05:42.952Z,3.45
2022-11-25T12:08:14.550Z,2.95
2022-11-25T12:10:46.360Z,3.05
2022-11-25T12:13:17.868Z,3.10
2022-11-25T12:15:49.968Z,3.85
2022-11-25T12:18:21.790Z,4.15
2022-11-25T12:20:53.646Z,4.30
2022-11-25T12:23:25.194Z,4.40
2022-11-25T12:25:56.746Z,5.80
2022-11-25T12:28:28.232Z,5.25
2022-11-25T12:31:04.778Z,4.80
2022-11-25T12:33:36.782Z,5.68
2022-11-25T12:36:08.773Z,4.50
2022-11-25T12:38:40.279Z,4.30
2022-11-25T12:41:12.012Z,4.60
2022-11-25T12:43:43.525Z,5.50
2022-11-25T12:46:15.499Z,4.78
2022-11-25T12:48:47.058Z,4.50
2022-11-25T12:51:18.915Z,4.05
2022-11-25T12:53:50.430Z,5.63
2022-11-25T12:56:22.599Z,4.63
2022-11-25T12:58:54.383Z,4.07
2022-11-25T13:01:27.292Z,4.28
2022-11-25T13:06:32.557Z,4.28
2022-11-25T13:09:04.726Z,3.97
2022-11-25T13:11:36.903Z,3.60
2022-11-25T13:14:08.907Z,4.72
2022-11-25T13:16:41.453Z,3.70
2022-11-25T13:19:13.319Z,4.32
2022-11-25T13:21:45.747Z,4.47
2022-11-25T13:24:17.275Z,4.60
2022-11-25T13:26:48.854Z,4.03
2022-11-25T13:29:20.346Z,3.67
2022-11-25T13:31:55.970Z,3.63
2022-11-25T13:34:30.359Z,4.40
2022-11-25T13:37:02.125Z,4.25
2022-11-25T13:39:33.732Z,4.60
2022-11-25T13:42:05.653Z,4.22
2022-11-25T13:44:37.492Z,4.15
2022-11-25T13:47:09.515Z,4.30
2022-11-25T13:49:41.197Z,3.97
2022-11-25T13:52:12.718Z,4.95
2022-11-25T13:54:44.238Z,3.65
2022-11-25T13:57:16.094Z,4.82
2022-11-25T13:59:47.605Z,3.47
2022-11-25T14:02:19.534Z,3.97
2022-11-25T14:04:51.199Z,4.63
2022-11-25T14:07:23.111Z,4.30
2022-11-25T14:09:54.722Z,3.90
2022-11-25T14:12:26.633Z,4.55
2022-11-25T14:14:58.136Z,3.50
2022-11-25T14:17:29.920Z,4.10
2022-11-25T14:20:03.788Z,3.58
2022-11-25T14:22:36.007Z,4.50
2022-11-25T14:25:07.535Z,4.60
2022-11-25T14:27:39.414Z,4.50
2022-11-25T14:30:10.932Z,4.47
2022-11-25T14:32:42.797Z,3.95
2022-11-25T14:35:14.311Z,3.97
2022-11-25T14:37:46.174Z,4.47
2022-11-25T14:40:17.695Z,4.70
2022-11-25T14:42:49.545Z,4.35
2022-11-25T14:45:21.053Z,3.95
2022-11-25T14:47:53.163Z,4.25
2022-11-25T14:50:34.797Z,3.47
2022-11-25T14:53:07.304Z,4.20
2022-11-25T14:55:39.193Z,3.97
2022-11-25T14:58:10.698Z,4.82
2022-11-25T15:00:42.554Z,4.82
2022-11-25T15:03:14.050Z,4.40
2022-11-25T15:05:45.881Z,4.90
2022-11-25T15:08:18.042Z,4.63
2022-11-25T15:10:50.478Z,3.63
2022-11-25T15:13:21.973Z,4.68
2022-11-25T15:15:53.940Z,4.43
2022-11-25T15:18:25.981Z,4.70
2022-11-25T15:20:57.835Z,4.47
2022-11-25T15:23:31.737Z,4.40
2022-11-25T15:26:03.716Z,6.28
2022-11-25T15:28:35.268Z,4.07
2022-11-25T15:31:07.158Z,5.93
2022-11-25T15:33:38.876Z,5.68
2022-11-25T15:36:10.698Z,4.63
2022-11-25T15:38:42.279Z,5.82
2022-11-25T15:41:13.792Z,5.97
2022-11-25T15:43:45.280Z,5.30
2022-11-25T15:46:16.861Z,4.90
2022-11-25T15:48:48.476Z,5.60
2022-11-25T15:51:20.142Z,5.65
2022-11-25T15:53:51.635Z,3.75
2022-11-25T15:56:23.414Z,5.75
2022-11-25T15:58:58.742Z,5.00
2022-11-25T16:01:33.574Z,5.13
2022-11-25T16:04:05.115Z,4.73
2022-11-25T16:06:36.982Z,5.78
2022-11-25T16:09:08.487Z,4.63
2022-11-25T16:11:40.343Z,6.00
2022-11-25T16:14:11.849Z,5.68
2022-11-25T16:16:43.756Z,5.13
2022-11-25T16:19:15.285Z,5.90
2022-11-25T16:21:47.114Z,5.50
2022-11-25T16:24:18.645Z,5.18
2022-11-25T16:26:50.851Z,5.75
2022-11-25T16:29:22.463Z,4.15
2022-11-25T16:31:54.419Z,5.15
2022-11-25T16:34:26.723Z,5.07
2022-11-25T16:36:58.789Z,4.95
2022-11-25T16:39:30.291Z,6.38
2022-11-25T16:42:04.062Z,6.15
2022-11-25T16:44:35.893Z,4.72
2022-11-25T16:47:07.760Z,5.97
2022-11-25T16:49:39.547Z,5.45
2022-11-25T16:52:11.207Z,5.63
2022-11-25T16:54:42.701Z,5.00
2022-11-25T16:57:14.530Z,3.95
2022-11-25T16:59:46.074Z,5.55
2022-11-25T17:02:18.403Z,5.30
2022-11-25T17:04:50.036Z,5.55
2022-11-25T17:07:38.593Z,5.20
2022-11-25T17:10:10.367Z,5.43
2022-11-25T17:12:41.887Z,6.75
2022-11-25T17:15:13.516Z,5.05
2022-11-25T17:17:46.962Z,6.13
2022-11-25T17:20:18.758Z,5.78
2022-11-25T17:22:50.970Z,4.93
2022-11-25T17:25:22.892Z,4.80
2022-11-25T17:27:54.675Z,4.55
2022-11-25T17:30:26.565Z,4.43
2022-11-25T17:32:58.682Z,5.15
2022-11-25T17:35:30.577Z,4.50
2022-11-25T17:38:02.857Z,5.50
2022-11-25T17:40:35.768Z,5.50
2022-11-25T17:43:08.093Z,5.13
2022-11-25T17:45:40.007Z,4.43
2022-11-25T17:48:12.182Z,5.63
2022-11-25T17:50:43.894Z,4.63
2022-11-25T17:53:16.149Z,5.20
2022-11-25T17:55:47.904Z,4.93
2022-11-25T17:58:20.790Z,5.25
2022-11-25T18:03:25.122Z,5.53
2022-11-25T18:05:56.989Z,5.47
2022-11-25T18:08:29.153Z,4.78
2022-11-25T18:11:01.114Z,5.57
2022-11-25T18:13:33.392Z,6.03
2022-11-25T18:16:05.232Z,5.15
2022-11-25T18:18:37.604Z,4.72
2022-11-25T18:21:09.414Z,4.90
2022-11-25T18:23:41.839Z,5.72
2022-11-25T18:26:13.650Z,4.57
2022-11-25T18:28:45.427Z,5.60
2022-11-25T18:31:17.361Z,4.72
2022-11-25T18:33:49.505Z,5.17
2022-11-25T18:36:21.231Z,5.38
2022-11-25T18:38:53.939Z,4.78
2022-11-25T18:41:25.683Z,4.88
2022-11-25T18:43:57.761Z,4.65
2022-11-25T18:46:29.666Z,3.90
2022-11-25T18:49:01.756Z,3.60
2022-11-25T18:51:34.015Z,4.57
2022-11-25T18:54:06.318Z,3.33
2022-11-25T18:56:38.153Z,4.53
2022-11-25T18:59:09.793Z,3.05
2022-11-25T19:01:45.412Z,3.67
2022-11-25T19:04:20.207Z,3.13
2022-11-25T19:06:51.986Z,4.15
2022-11-25T19:09:24.118Z,3.63
2022-11-25T19:11:56.616Z,4.38
2022-11-25T19:14:30.201Z,3.90
2022-11-25T19:17:08.736Z,3.03
2022-11-25T19:19:42.924Z,3.25
2022-11-25T19:22:16.316Z,3.58
2022-11-25T19:24:48.168Z,3.75
2022-11-25T19:27:21.362Z,3.60
2022-11-25T19:29:53.055Z,2.67
2022-11-25T19:32:24.568Z,3.17
2022-11-25T19:34:56.177Z,3.13
2022-11-25T19:37:30.160Z,3.65
2022-11-25T19:40:02.977Z,3.03
2022-11-25T19:42:34.847Z,3.63
2022-11-25T19:45:06.372Z,2.53
2022-11-25T19:47:38.273Z,3.22
2022-11-25T19:50:09.770Z,2.83
2022-11-25T19:52:41.721Z,3.30
2022-11-25T19:55:13.328Z,2.47
2022-11-25T19:57:44.869Z,3.30
2022-11-25T20:00:16.364Z,3.15
2022-11-25T20:02:48.402Z,3.05
2022-11-25T20:05:19.971Z,3.30
2022-11-25T20:07:52.018Z,2.80
2022-11-25T20:10:24.007Z,3.60
2022-11-25T20:12:55.541Z,3.70
2022-11-25T20:15:27.086Z,3.58
2022-11-25T20:17:58.984Z,3.67
2022-11-25T20:20:31.798Z,3.63
2022-11-25T20:25:35.185Z,3.42
2022-11-25T20:28:06.821Z,3.72
2022-11-25T20:30:38.331Z,3.58
2022-11-25T20:33:10.707Z,3.72
2022-11-25T20:35:42.503Z,4.28
2022-11-25T20:38:14.513Z,3.13
2022-11-25T20:40:46.046Z,3.00
2022-11-25T20:43:18.010Z,2.65
2022-11-25T20:45:49.578Z,3.67
2022-11-25T20:48:21.414Z,3.05
2022-11-25T20:50:53.359Z,3.50
2022-11-25T20:53:25.321Z,2.90
2022-11-25T20:55:56.822Z,2.60
2022-11-25T20:58:28.872Z,3.00
2022-11-25T21:01:00.548Z,2.90
2022-11-25T21:03:32.459Z,2.70
2022-11-25T21:06:04.009Z,2.92
2022-11-25T21:08:35.916Z,3.08
2022-11-25T21:11:07.456Z,2.65
2022-11-25T21:13:39.283Z,2.85
2022-11-25T21:16:11.057Z,3.30
2022-11-25T21:18:43.214Z,2.80
2022-11-25T21:21:15.289Z,3.42
2022-11-25T21:23:46.919Z,3.10
2022-11-25T21:26:18.569Z,3.08
2022-11-25T21:28:50.283Z,2.95
2022-11-25T21:31:21.954Z,3.20
2022-11-25T21:33:53.557Z,2.92
2022-11-25T21:36:25.052Z,3.17
2022-11-25T21:38:57.008Z,2.58
2022-11-25T21:41:28.574Z,3.38
2022-11-25T21:44:00.103Z,2.42
2022-11-25T21:46:31.708Z,2.28
2022-11-25T21:49:03.398Z,3.28
2022-11-25T21:51:34.895Z,2.55
2022-11-25T21:54:07.409Z,2.22
2022-11-25T21:56:39.005Z,2.83
2022-11-25T21:59:10.933Z,2.72
2022-11-25T22:01:42.416Z,3.25
2022-11-25T22:04:13.935Z,3.05
2022-11-25T22:06:45.579Z,2.47
2022-11-25T22:09:17.427Z,2.15
2022-11-25T22:11:50.237Z,2.80
2022-11-25T22:14:22.341Z,2.20
2022-11-25T22:16:53.937Z,2.67
2022-11-25T22:19:25.527Z,2.50
2022-11-25T22:21:57.085Z,1.88
2022-11-25T22:24:28.943Z,2.50
2022-11-25T22:27:00.526Z,2.55
2022-11-25T22:29:32.322Z,2.22
2022-11-25T22:32:07.098Z,2.05
2022-11-25T22:34:43.051Z,2.90
2022-11-25T22:37:14.542Z,2.30
2022-11-25T22:39:46.433Z,1.95
2022-11-25T22:42:18.015Z,2.75
2022-11-25T22:44:49.577Z,2.90
2022-11-25T22:47:21.272Z,2.22
2022-11-25T22:49:53.283Z,2.72
2022-11-25T22:52:24.785Z,2.57
2022-11-25T22:54:56.788Z,2.40
2022-11-25T22:57:28.340Z,2.37
2022-11-25T23:00:00.219Z,2.08
2022-11-25T23:02:31.837Z,3.22
2022-11-25T23:05:03.512Z,2.53
2022-11-25T23:07:35.103Z,2.88
2022-11-25T23:10:07.132Z,2.20
2022-11-25T23:12:38.629Z,3.13
2022-11-25T23:15:10.567Z,2.55
2022-11-25T23:17:42.061Z,2.47
2022-11-25T23:20:13.869Z,2.95
2022-11-25T23:22:45.418Z,2.88
2022-11-25T23:25:17.309Z,1.95
2022-11-25T23:27:48.855Z,2.85
2022-11-25T23:30:20.756Z,2.60
2022-11-25T23:32:52.269Z,2.58
2022-11-25T23:35:24.072Z,2.72
2022-11-25T23:37:55.586Z,3.58
2022-11-25T23:40:27.237Z,3.50
2022-11-25T23:42:58.806Z,3.50
2022-11-25T23:45:30.697Z,3.47
2022-11-25T23:48:02.271Z,3.53
2022-11-25T23:50:34.270Z,4.05
2022-11-25T23:53:05.762Z,4.37
2022-11-25T23:55:37.700Z,2.65
2022-11-25T23:58:09.545Z,4.30
